createdAt,value
2019-05-17T00:01:11.770Z,11.27
2019-05-17T00:03:40.709Z,10.90
2019-05-17T00:06:09.479Z,11.97
2019-05-17T00:08:40.450Z,12.87
2019-05-17T00:11:10.288Z,14.37
2019-05-17T00:13:39.044Z,14.47
2019-05-17T00:16:09.744Z,14.87
2019-05-17T00:18:40.296Z,16.83
2019-05-17T00:21:09.231Z,14.10
2019-05-17T00:23:39.199Z,12.00
2019-05-17T00:26:09.691Z,12.10
2019-05-17T00:28:40.992Z,12.27
2019-05-17T00:31:12.833Z,14.60
2019-05-17T00:33:42.624Z,17.17
2019-05-17T00:36:11.498Z,16.23
2019-05-17T00:38:48.217Z,17.20
2019-05-17T00:41:17.489Z,14.50
2019-05-17T00:43:52.346Z,17.27
2019-05-17T00:46:26.666Z,17.83
2019-05-17T00:48:58.070Z,11.40
2019-05-17T00:51:27.476Z,10.63
2019-05-17T00:53:57.708Z,10.50
2019-05-17T00:56:29.540Z,9.40
2019-05-17T00:58:59.890Z,10.47
2019-05-17T01:01:30.642Z,10.23
2019-05-17T01:04:03.084Z,10.37
2019-05-17T01:06:34.533Z,10.93
2019-05-17T01:09:04.190Z,10.53
2019-05-17T01:11:36.540Z,11.63
2019-05-17T01:14:06.958Z,9.33
2019-05-17T01:16:38.897Z,10.00
2019-05-17T01:19:09.039Z,9.77
2019-05-17T01:21:38.226Z,10.90
2019-05-17T01:24:07.039Z,9.90
2019-05-17T01:26:37.350Z,9.77
2019-05-17T01:29:06.816Z,9.90
2019-05-17T01:31:38.456Z,9.57
2019-05-17T01:34:08.921Z,10.67
2019-05-17T01:36:38.020Z,9.33
2019-05-17T01:39:15.202Z,8.87
2019-05-17T01:41:37.329Z,9.73
2019-05-17T01:44:07.476Z,9.80
2019-05-17T01:46:37.004Z,10.30
2019-05-17T01:49:08.060Z,10.37
2019-05-17T01:51:41.435Z,9.60
2019-05-17T01:54:12.056Z,9.07
2019-05-17T01:56:45.889Z,9.40
2019-05-17T01:59:17.222Z,10.13
2019-05-17T02:01:49.322Z,9.73
2019-05-17T02:04:23.591Z,10.33
2019-05-17T02:06:53.704Z,10.53
2019-05-17T02:09:34.786Z,10.53
2019-05-17T02:12:11.916Z,10.73
2019-05-17T02:14:41.587Z,10.97
2019-05-17T02:17:11.958Z,12.00
2019-05-17T02:19:46.457Z,12.90
2019-05-17T02:22:16.715Z,12.10
2019-05-17T02:24:47.356Z,12.43
2019-05-17T02:27:16.148Z,10.73
2019-05-17T02:29:45.683Z,11.83
2019-05-17T02:32:14.369Z,13.17
2019-05-17T02:34:43.209Z,13.63
2019-05-17T02:37:14.013Z,13.20
2019-05-17T02:39:56.579Z,14.23
2019-05-17T02:42:13.935Z,14.33
2019-05-17T02:44:43.808Z,12.53
2019-05-17T02:47:14.614Z,12.40
2019-05-17T02:49:43.640Z,12.87
2019-05-17T02:52:12.672Z,12.50
2019-05-17T02:54:43.662Z,12.77
2019-05-17T02:57:14.182Z,12.30
2019-05-17T02:59:43.321Z,11.50
2019-05-17T03:02:12.831Z,12.30
2019-05-17T03:04:43.290Z,11.70
2019-05-17T03:07:13.763Z,10.60
2019-05-17T03:09:43.217Z,10.27
2019-05-17T03:12:12.998Z,11.57
2019-05-17T03:14:43.366Z,12.33
2019-05-17T03:17:14.213Z,11.10
2019-05-17T03:19:43.738Z,12.07
2019-05-17T03:22:14.470Z,11.63
2019-05-17T03:24:44.959Z,11.33
2019-05-17T03:27:15.120Z,11.70
2019-05-17T03:29:43.815Z,13.07
2019-05-17T03:32:18.566Z,11.83
2019-05-17T03:34:46.817Z,12.07
2019-05-17T03:37:17.135Z,11.97
2019-05-17T03:39:47.446Z,12.03
2019-05-17T03:42:22.500Z,11.80
2019-05-17T03:44:53.109Z,12.03
2019-05-17T03:47:22.887Z,11.77
2019-05-17T03:49:55.031Z,12.10
2019-05-17T03:52:28.070Z,11.67
2019-05-17T03:54:59.176Z,11.93
2019-05-17T03:57:28.989Z,11.80
2019-05-17T04:00:09.573Z,10.23
2019-05-17T04:02:38.496Z,11.30
2019-05-17T04:05:08.105Z,10.50
2019-05-17T04:07:37.655Z,10.83
2019-05-17T04:10:09.990Z,11.20
2019-05-17T04:12:43.609Z,9.83
2019-05-17T04:15:13.708Z,10.40
2019-05-17T04:17:52.985Z,10.87
2019-05-17T04:20:22.566Z,12.63
2019-05-17T04:22:55.059Z,13.37
2019-05-17T04:25:24.829Z,11.47
2019-05-17T04:27:53.831Z,12.70
2019-05-17T04:30:28.503Z,11.07
2019-05-17T04:32:58.345Z,11.00
2019-05-17T04:35:33.297Z,10.63
2019-05-17T04:38:07.717Z,10.50
2019-05-17T04:40:38.003Z,10.47
2019-05-17T04:43:09.339Z,11.17
2019-05-17T04:45:38.078Z,10.57
2019-05-17T04:48:07.313Z,10.07
2019-05-17T04:50:38.862Z,10.97
2019-05-17T04:53:07.759Z,10.97
2019-05-17T04:55:42.845Z,10.60
2019-05-17T04:58:16.576Z,10.30
2019-05-17T05:00:43.243Z,9.40
2019-05-17T05:03:12.843Z,9.33
2019-05-17T05:05:42.741Z,9.13
2019-05-17T05:08:14.709Z,8.73
2019-05-17T05:10:43.564Z,9.90
2019-05-17T05:13:13.424Z,9.70
2019-05-17T05:15:44.981Z,9.20
2019-05-17T05:18:14.020Z,9.00
2019-05-17T05:20:47.402Z,9.40
2019-05-17T05:23:24.278Z,9.40
2019-05-17T05:25:55.503Z,8.97
2019-05-17T05:28:26.106Z,8.47
2019-05-17T05:30:55.414Z,8.03
2019-05-17T05:33:38.981Z,8.87
2019-05-17T05:36:07.570Z,8.67
2019-05-17T05:38:38.803Z,8.97
2019-05-17T05:41:09.291Z,9.03
2019-05-17T05:43:38.382Z,10.40
2019-05-17T05:46:07.789Z,9.90
2019-05-17T05:48:37.282Z,10.13
2019-05-17T05:51:08.861Z,10.37
2019-05-17T05:53:41.933Z,11.47
2019-05-17T05:56:13.335Z,14.33
2019-05-17T05:58:43.039Z,13.57
2019-05-17T06:01:14.488Z,13.57
2019-05-17T06:03:44.391Z,15.17
2019-05-17T06:06:13.344Z,14.73
2019-05-17T06:08:43.704Z,14.93
2019-05-17T06:11:13.883Z,15.67
2019-05-17T06:13:44.667Z,15.07
2019-05-17T06:16:14.387Z,15.57
2019-05-17T06:18:43.195Z,16.07
2019-05-17T06:21:12.537Z,16.40
2019-05-17T06:23:43.696Z,16.50
2019-05-17T06:26:14.180Z,15.53
2019-05-17T06:28:45.798Z,15.63
2019-05-17T06:31:15.945Z,33.13
2019-05-17T06:33:44.582Z,37.73
2019-05-17T06:36:14.968Z,15.87
2019-05-17T06:38:45.255Z,15.47
2019-05-17T06:41:14.543Z,15.40
2019-05-17T06:43:43.974Z,15.63
2019-05-17T06:46:12.662Z,14.40
2019-05-17T06:48:42.662Z,15.10
2019-05-17T06:51:14.326Z,16.63
2019-05-17T06:53:45.397Z,16.13
2019-05-17T06:56:16.805Z,19.67
2019-05-17T06:58:47.074Z,19.70
2019-05-17T07:01:19.607Z,21.23
2019-05-17T07:03:49.554Z,21.03
2019-05-17T07:06:21.543Z,23.83
2019-05-17T07:08:56.693Z,23.10
2019-05-17T07:11:25.283Z,23.83
2019-05-17T07:13:55.213Z,26.13
2019-05-17T07:16:26.063Z,24.17
2019-05-17T07:18:55.054Z,24.73
2019-05-17T07:21:25.641Z,25.60
2019-05-17T07:23:59.256Z,60.67
2019-05-17T07:26:30.217Z,25.83
2019-05-17T07:29:01.012Z,25.07
2019-05-17T07:31:31.676Z,23.73
2019-05-17T07:34:00.668Z,24.03
2019-05-17T07:36:31.040Z,23.40
2019-05-17T07:39:00.771Z,23.73
2019-05-17T07:41:32.663Z,23.53
2019-05-17T07:44:07.303Z,23.30
2019-05-17T07:46:40.118Z,22.43
2019-05-17T07:49:12.060Z,22.93
2019-05-17T07:51:41.698Z,19.70
2019-05-17T07:54:16.788Z,17.97
2019-05-17T07:56:50.420Z,22.10
2019-05-17T07:59:19.951Z,15.77
2019-05-17T08:01:50.844Z,14.20
2019-05-17T08:04:20.493Z,14.93
2019-05-17T08:06:53.206Z,11.80
2019-05-17T08:09:23.819Z,8.63
2019-05-17T08:11:53.907Z,7.00
2019-05-17T08:14:29.574Z,6.27
2019-05-17T08:16:55.947Z,6.00
2019-05-17T08:19:24.891Z,6.33
2019-05-17T08:21:59.666Z,5.70
2019-05-17T08:24:30.345Z,6.47
2019-05-17T08:26:59.913Z,6.90
2019-05-17T08:29:29.739Z,6.00
2019-05-17T08:32:02.565Z,6.43
2019-05-17T08:34:32.515Z,5.90
2019-05-17T08:37:01.247Z,5.40
2019-05-17T08:39:31.112Z,6.37
2019-05-17T08:42:01.365Z,7.27
2019-05-17T08:44:34.664Z,6.40
2019-05-17T08:47:04.194Z,8.40
2019-05-17T08:49:35.415Z,8.40
2019-05-17T08:52:03.958Z,8.67
2019-05-17T08:54:34.525Z,8.93
2019-05-17T08:57:03.931Z,8.73
2019-05-17T08:59:32.790Z,9.50
2019-05-17T09:02:04.019Z,10.27
2019-05-17T09:04:34.747Z,9.67
2019-05-17T09:07:03.525Z,9.23
2019-05-17T09:09:32.290Z,9.53
2019-05-17T09:12:01.161Z,9.60
2019-05-17T09:14:29.886Z,10.50
2019-05-17T09:17:02.631Z,12.70
2019-05-17T09:19:39.361Z,21.70
2019-05-17T09:22:10.411Z,11.37
2019-05-17T09:24:40.935Z,11.23
2019-05-17T09:27:10.325Z,9.67
2019-05-17T09:29:40.356Z,10.43
2019-05-17T09:32:09.796Z,10.17
2019-05-17T09:34:40.529Z,10.97
2019-05-17T09:37:14.453Z,11.00
2019-05-17T09:39:40.899Z,11.53
2019-05-17T09:42:12.491Z,10.93
2019-05-17T09:44:45.481Z,11.80
2019-05-17T09:47:20.582Z,11.00
2019-05-17T09:49:50.241Z,12.07
2019-05-17T09:52:19.974Z,11.30
2019-05-17T09:54:50.440Z,25.00
2019-05-17T09:57:20.989Z,17.23
2019-05-17T09:59:51.352Z,12.70
2019-05-17T10:02:20.341Z,12.77
2019-05-17T10:04:50.269Z,12.20
2019-05-17T10:07:20.906Z,12.23
2019-05-17T10:09:51.108Z,11.90
2019-05-17T10:12:20.379Z,12.07
2019-05-17T10:14:49.841Z,12.70
2019-05-17T10:17:21.199Z,12.73
2019-05-17T10:19:51.208Z,18.53
2019-05-17T10:22:21.210Z,10.40
2019-05-17T10:24:53.728Z,10.23
2019-05-17T10:27:24.549Z,10.27
2019-05-17T10:29:53.298Z,10.47
2019-05-17T10:32:25.979Z,10.60
2019-05-17T10:35:00.202Z,10.23
2019-05-17T10:37:27.489Z,11.33
2019-05-17T10:39:56.225Z,32.20
2019-05-17T10:42:26.497Z,9.57
2019-05-17T10:45:01.178Z,10.00
2019-05-17T10:47:31.700Z,9.40
2019-05-17T10:50:06.918Z,9.97
2019-05-17T10:52:37.275Z,12.83
2019-05-17T10:55:10.423Z,12.53
2019-05-17T10:57:39.433Z,9.37
2019-05-17T11:00:12.019Z,9.40
2019-05-17T11:02:41.571Z,10.70
2019-05-17T11:05:13.860Z,9.63
2019-05-17T11:07:42.528Z,9.27
2019-05-17T11:10:12.992Z,8.10
2019-05-17T11:12:45.584Z,8.97
2019-05-17T11:15:14.477Z,7.90
2019-05-17T11:17:44.774Z,7.53
2019-05-17T11:20:13.794Z,7.90
2019-05-17T11:22:46.935Z,7.23
2019-05-17T11:25:16.990Z,6.80
2019-05-17T11:27:48.282Z,6.43
2019-05-17T11:30:43.949Z,7.23
2019-05-17T11:32:51.595Z,6.37
2019-05-17T11:35:25.158Z,6.53
2019-05-17T11:37:54.600Z,6.70
2019-05-17T11:40:28.303Z,6.60
2019-05-17T11:42:57.395Z,6.67
2019-05-17T11:45:32.877Z,7.17
2019-05-17T11:48:01.961Z,7.00
2019-05-17T11:50:35.231Z,13.40
2019-05-17T11:53:09.907Z,6.73
2019-05-17T11:55:43.352Z,6.40
2019-05-17T11:58:12.371Z,5.83
2019-05-17T12:00:42.802Z,6.17
2019-05-17T12:03:14.193Z,6.03
2019-05-17T12:05:43.143Z,6.20
2019-05-17T12:08:14.841Z,7.13
2019-05-17T12:10:46.291Z,6.80
2019-05-17T12:13:15.416Z,6.27
2019-05-17T12:15:46.914Z,7.00
2019-05-17T12:18:17.028Z,7.30
2019-05-17T12:20:46.668Z,8.23
2019-05-17T12:23:18.937Z,7.50
2019-05-17T12:25:51.345Z,8.77
2019-05-17T12:28:22.235Z,9.00
2019-05-17T12:30:51.116Z,8.33
2019-05-17T12:33:19.935Z,8.27
2019-05-17T12:35:52.592Z,8.50
2019-05-17T12:38:21.312Z,9.37
2019-05-17T12:40:50.120Z,8.70
2019-05-17T12:43:21.681Z,7.67
2019-05-17T12:46:00.205Z,8.47
2019-05-17T12:48:22.049Z,7.30
2019-05-17T12:50:54.910Z,7.90
2019-05-17T12:53:25.227Z,8.90
2019-05-17T12:55:59.322Z,10.10
2019-05-17T12:58:30.698Z,10.27
2019-05-17T13:00:59.913Z,9.30
2019-05-17T13:03:32.470Z,9.70
2019-05-17T13:06:02.433Z,10.80
2019-05-17T13:08:32.676Z,11.17
2019-05-17T13:11:04.982Z,11.10
2019-05-17T13:13:39.820Z,10.10
2019-05-17T13:16:18.037Z,5.90
2019-05-17T13:18:47.513Z,5.20
2019-05-17T13:21:28.299Z,5.00
2019-05-17T13:23:51.592Z,5.07
2019-05-17T13:26:21.065Z,5.40
2019-05-17T13:28:51.942Z,5.47
2019-05-17T13:31:21.733Z,5.40
2019-05-17T13:33:51.633Z,5.70
2019-05-17T13:36:20.278Z,4.60
2019-05-17T13:38:53.013Z,4.43
2019-05-17T13:41:24.187Z,4.47
2019-05-17T13:43:54.582Z,4.23
2019-05-17T13:46:32.815Z,4.30
2019-05-17T13:49:04.316Z,4.77
2019-05-17T13:51:38.276Z,5.33
2019-05-17T13:54:11.124Z,4.50
2019-05-17T13:56:53.247Z,5.00
2019-05-17T13:59:22.130Z,3.57
2019-05-17T14:01:52.166Z,3.40
2019-05-17T14:04:31.953Z,3.90
2019-05-17T14:07:00.986Z,3.53
2019-05-17T14:09:35.666Z,3.67
2019-05-17T14:12:12.013Z,3.77
2019-05-17T14:14:47.247Z,3.90
2019-05-17T14:17:17.082Z,4.53
2019-05-17T14:19:50.062Z,4.23
2019-05-17T14:22:19.201Z,3.47
2019-05-17T14:24:48.245Z,4.13
2019-05-17T14:27:17.140Z,4.23
2019-05-17T14:29:46.622Z,3.53
2019-05-17T14:32:16.696Z,3.33
2019-05-17T14:34:47.091Z,3.80
2019-05-17T14:37:16.431Z,2.97
2019-05-17T14:39:51.798Z,2.80
2019-05-17T14:42:27.364Z,3.40
2019-05-17T14:44:58.999Z,3.53
2019-05-17T14:47:28.546Z,2.70
2019-05-17T14:50:01.682Z,2.90
2019-05-17T14:52:31.239Z,3.63
2019-05-17T14:55:00.453Z,2.90
2019-05-17T14:57:36.212Z,3.07
2019-05-17T15:00:08.786Z,3.17
2019-05-17T15:02:42.735Z,2.47
2019-05-17T15:05:12.259Z,2.50
2019-05-17T15:07:48.044Z,2.23
2019-05-17T15:10:18.270Z,2.27
2019-05-17T15:12:46.954Z,2.37
2019-05-17T15:15:25.815Z,2.67
2019-05-17T15:17:54.537Z,2.90
2019-05-17T15:20:20.838Z,2.60
2019-05-17T15:22:51.464Z,2.53
2019-05-17T15:25:21.665Z,2.53
2019-05-17T15:27:51.567Z,2.83
2019-05-17T15:30:23.300Z,2.67
2019-05-17T15:32:54.853Z,2.33
2019-05-17T15:35:26.124Z,2.43
2019-05-17T15:38:07.288Z,2.50
2019-05-17T15:40:41.133Z,2.63
2019-05-17T15:43:13.216Z,2.50
2019-05-17T15:45:43.369Z,2.83
2019-05-17T15:48:13.076Z,3.37
2019-05-17T15:50:43.135Z,3.97
2019-05-17T15:53:13.099Z,3.27
2019-05-17T15:55:48.368Z,3.43
2019-05-17T15:58:16.585Z,3.70
2019-05-17T16:00:50.252Z,3.40
2019-05-17T16:03:23.707Z,3.13
2019-05-17T16:05:52.547Z,3.07
2019-05-17T16:08:23.269Z,3.37
2019-05-17T16:10:52.223Z,2.83
2019-05-17T16:13:21.608Z,3.20
2019-05-17T16:15:52.200Z,3.33
2019-05-17T16:18:20.782Z,3.57
2019-05-17T16:20:50.427Z,3.40
2019-05-17T16:23:23.712Z,3.40
2019-05-17T16:25:54.177Z,3.67
2019-05-17T16:28:23.212Z,3.40
2019-05-17T16:30:54.867Z,3.70
2019-05-17T16:33:24.166Z,3.73
2019-05-17T16:35:54.443Z,3.60
2019-05-17T16:38:30.725Z,3.90
2019-05-17T16:41:01.973Z,4.17
2019-05-17T16:43:33.980Z,3.47
2019-05-17T16:46:08.148Z,4.13
2019-05-17T16:48:45.060Z,3.97
2019-05-17T16:51:22.098Z,4.10
2019-05-17T16:53:54.590Z,4.33
2019-05-17T16:56:24.968Z,3.97
2019-05-17T16:59:04.899Z,4.33
2019-05-17T17:01:37.874Z,3.60
2019-05-17T17:04:11.353Z,4.77
2019-05-17T17:06:46.079Z,4.53
2019-05-17T17:09:21.015Z,4.57
2019-05-17T17:11:52.481Z,4.10
2019-05-17T17:14:25.154Z,3.93
2019-05-17T17:16:54.499Z,3.63
2019-05-17T17:19:27.085Z,3.57
2019-05-17T17:21:59.110Z,3.67
2019-05-17T17:24:31.160Z,3.60
2019-05-17T17:27:03.373Z,3.73
2019-05-17T17:29:32.554Z,3.47
2019-05-17T17:32:20.752Z,4.20
2019-05-17T17:34:39.722Z,4.00
2019-05-17T17:37:10.172Z,4.43
2019-05-17T17:39:40.528Z,3.70
2019-05-17T17:42:09.601Z,3.83
2019-05-17T17:44:39.877Z,3.40
2019-05-17T17:47:08.701Z,3.27
2019-05-17T17:49:41.857Z,3.70
2019-05-17T17:52:15.234Z,3.70
2019-05-17T17:54:53.056Z,4.17
2019-05-17T17:57:23.329Z,3.87
2019-05-17T17:59:55.693Z,3.83
2019-05-17T18:02:27.775Z,4.10
2019-05-17T18:05:04.373Z,3.93
2019-05-17T18:07:37.594Z,3.10
2019-05-17T18:10:13.063Z,3.83
2019-05-17T18:12:45.002Z,3.93
2019-05-17T18:15:19.575Z,3.80
2019-05-17T18:17:50.622Z,4.20
2019-05-17T18:20:19.529Z,4.57
2019-05-17T18:22:52.809Z,4.47
2019-05-17T18:25:22.647Z,4.53
2019-05-17T18:27:51.233Z,4.83
2019-05-17T18:30:21.488Z,4.67
2019-05-17T18:32:53.997Z,4.90
2019-05-17T18:35:26.674Z,4.47
2019-05-17T18:37:59.417Z,4.57
2019-05-17T18:40:30.906Z,4.60
2019-05-17T18:43:12.124Z,4.90
2019-05-17T18:45:41.515Z,5.30
2019-05-17T18:48:17.213Z,4.83
2019-05-17T18:50:46.753Z,4.80
2019-05-17T18:53:17.439Z,5.37
2019-05-17T18:56:04.342Z,5.10
2019-05-17T18:58:39.452Z,5.27
2019-05-17T19:01:12.142Z,5.13
2019-05-17T19:03:41.252Z,5.60
2019-05-17T19:06:11.645Z,5.40
2019-05-17T19:08:43.894Z,5.57
2019-05-17T19:11:14.252Z,5.50
2019-05-17T19:13:43.980Z,5.30
2019-05-17T19:16:14.191Z,5.13
2019-05-17T19:18:48.427Z,4.97
2019-05-17T19:21:17.889Z,5.70
2019-05-17T19:23:52.658Z,5.90
2019-05-17T19:26:17.339Z,5.80
2019-05-17T19:28:46.286Z,6.57
2019-05-17T19:31:20.021Z,6.87
2019-05-17T19:33:49.066Z,6.23
2019-05-17T19:36:23.005Z,7.13
2019-05-17T19:38:57.257Z,6.17
2019-05-17T19:41:25.877Z,7.23
2019-05-17T19:43:56.187Z,9.53
2019-05-17T19:46:29.812Z,8.50
2019-05-17T19:51:52.846Z,9.43
2019-05-17T19:54:21.276Z,9.10
2019-05-17T19:56:51.666Z,7.60
2019-05-17T19:59:22.784Z,8.10
2019-05-17T20:01:56.751Z,8.10
2019-05-17T20:04:27.951Z,7.00
2019-05-17T20:06:58.833Z,7.77
2019-05-17T20:09:29.679Z,7.40
2019-05-17T20:14:57.139Z,8.47
2019-05-17T20:17:31.704Z,8.80
2019-05-17T20:20:01.972Z,7.63
2019-05-17T20:22:34.576Z,6.87
2019-05-17T20:25:07.801Z,7.30
2019-05-17T20:27:39.999Z,7.57
2019-05-17T20:30:12.851Z,8.30
2019-05-17T20:32:42.720Z,8.03
2019-05-17T20:35:12.504Z,8.00
2019-05-17T20:37:42.686Z,7.83
2019-05-17T20:40:16.427Z,7.07
2019-05-17T20:42:46.479Z,9.27
2019-05-17T20:45:30.581Z,8.53
2019-05-17T20:47:47.903Z,8.23
2019-05-17T20:50:18.119Z,7.50
2019-05-17T20:52:49.498Z,7.60
2019-05-17T20:55:19.240Z,8.40
2019-05-17T20:57:53.310Z,9.77
2019-05-17T21:00:27.998Z,10.60
2019-05-17T21:02:56.504Z,10.40
2019-05-17T21:05:31.097Z,10.30
2019-05-17T21:08:02.218Z,9.20
2019-05-17T21:10:31.981Z,10.47
2019-05-17T21:13:06.583Z,11.47
2019-05-17T21:15:47.539Z,9.37
2019-05-17T21:18:21.133Z,8.70
2019-05-17T21:20:51.211Z,7.93
2019-05-17T21:23:22.050Z,10.60
2019-05-17T21:25:51.464Z,10.83
2019-05-17T21:28:20.747Z,10.00
2019-05-17T21:30:50.859Z,9.60
2019-05-17T21:33:21.072Z,9.87
2019-05-17T21:35:49.950Z,10.63
2019-05-17T21:38:33.029Z,9.87
2019-05-17T21:41:07.596Z,11.90
2019-05-17T21:43:39.833Z,11.70
2019-05-17T21:46:12.482Z,12.33
2019-05-17T21:48:42.348Z,12.13
2019-05-17T21:51:14.916Z,12.10
2019-05-17T21:53:45.819Z,13.90
2019-05-17T21:56:21.215Z,12.40
2019-05-17T21:58:50.483Z,12.00
2019-05-17T22:01:25.802Z,13.47
2019-05-17T22:03:55.788Z,16.20
2019-05-17T22:06:24.526Z,15.13
2019-05-17T22:08:53.207Z,16.00
2019-05-17T22:11:22.881Z,12.93
2019-05-17T22:13:53.844Z,15.37
2019-05-17T22:16:26.856Z,16.80
2019-05-17T22:18:57.718Z,16.87
2019-05-17T22:21:27.963Z,16.03
2019-05-17T22:24:08.939Z,13.67
2019-05-17T22:29:27.905Z,17.33
2019-05-17T22:31:56.608Z,16.57
2019-05-17T22:34:27.592Z,18.60
2019-05-17T22:37:07.689Z,17.80
2019-05-17T22:39:36.618Z,17.57
2019-05-17T22:42:06.168Z,17.27
2019-05-17T22:44:35.135Z,15.10
2019-05-17T22:47:05.407Z,14.50
2019-05-17T22:49:37.701Z,15.63
2019-05-17T22:52:07.272Z,15.47
2019-05-17T22:54:36.253Z,15.43
2019-05-17T22:57:06.346Z,15.93
2019-05-17T22:59:36.629Z,14.80
2019-05-17T23:02:06.379Z,16.87
2019-05-17T23:04:39.157Z,15.77
2019-05-17T23:07:09.662Z,14.13
2019-05-17T23:09:38.731Z,15.90
2019-05-17T23:12:10.985Z,15.37
2019-05-17T23:14:39.709Z,15.67
2019-05-17T23:17:11.809Z,15.90
2019-05-17T23:19:43.526Z,15.27
2019-05-17T23:22:12.239Z,18.40
2019-05-17T23:24:42.908Z,21.50
2019-05-17T23:27:11.577Z,22.63
2019-05-17T23:29:42.041Z,23.53
2019-05-17T23:32:13.430Z,20.73
2019-05-17T23:34:45.009Z,19.27
2019-05-17T23:37:19.951Z,20.63
2019-05-17T23:39:46.155Z,19.37
2019-05-17T23:42:15.444Z,18.60
2019-05-17T23:44:44.143Z,19.13
2019-05-17T23:47:15.960Z,20.17
2019-05-17T23:49:51.054Z,18.47
2019-05-17T23:52:21.615Z,18.40
2019-05-17T23:54:52.183Z,18.50
2019-05-17T23:57:21.090Z,17.23
2019-05-17T23:59:50.492Z,17.37
